sensor_id;sensor_type;location;lat;lon;timestamp;P1;durP1;ratioP1;P2;durP2;ratioP2
28756;SDS011;44294;48.282;14.282;2024-03-08T00:01:07;72.97;;;34.90;;
28756;SDS011;44294;48.282;14.282;2024-03-08T00:03:54;69.97;;;34.33;;
28756;SDS011;44294;48.282;14.282;2024-03-08T00:06:41;79.43;;;38.03;;
28756;SDS011;44294;48.282;14.282;2024-03-08T00:09:30;71.47;;;35.53;;
28756;SDS011;44294;48.282;14.282;2024-03-08T00:12:18;73.10;;;34.70;;
28756;SDS011;44294;48.282;14.282;2024-03-08T00:15:07;72.90;;;34.50;;
28756;SDS011;44294;48.282;14.282;2024-03-08T00:17:54;79.40;;;35.60;;
28756;SDS011;44294;48.282;14.282;2024-03-08T00:20:42;82.60;;;37.90;;
28756;SDS011;44294;48.282;14.282;2024-03-08T00:23:31;75.40;;;36.80;;
28756;SDS011;44294;48.282;14.282;2024-03-08T00:26:19;77.67;;;37.50;;
28756;SDS011;44294;48.282;14.282;2024-03-08T00:29:08;80.73;;;37.00;;
28756;SDS011;44294;48.282;14.282;2024-03-08T00:31:55;85.33;;;40.40;;
28756;SDS011;44294;48.282;14.282;2024-03-08T00:34:44;82.30;;;38.90;;
28756;SDS011;44294;48.282;14.282;2024-03-08T00:37:31;75.30;;;35.30;;
28756;SDS011;44294;48.282;14.282;2024-03-08T00:40:20;82.20;;;36.90;;
28756;SDS011;44294;48.282;14.282;2024-03-08T00:43:09;78.27;;;37.17;;
28756;SDS011;44294;48.282;14.282;2024-03-08T00:45:56;80.90;;;39.40;;
28756;SDS011;44294;48.282;14.282;2024-03-08T00:48:44;74.20;;;34.97;;
28756;SDS011;44294;48.282;14.282;2024-03-08T00:51:31;76.67;;;37.30;;
28756;SDS011;44294;48.282;14.282;2024-03-08T00:54:19;77.10;;;36.63;;
28756;SDS011;44294;48.282;14.282;2024-03-08T00:57:06;77.73;;;36.77;;
28756;SDS011;44294;48.282;14.282;2024-03-08T00:59:53;77.60;;;36.47;;
28756;SDS011;44294;48.282;14.282;2024-03-08T01:02:41;76.40;;;36.03;;
28756;SDS011;44294;48.282;14.282;2024-03-08T01:05:28;80.07;;;38.03;;
28756;SDS011;44294;48.282;14.282;2024-03-08T01:08:15;75.03;;;35.80;;
28756;SDS011;44294;48.282;14.282;2024-03-08T01:11:04;74.83;;;36.73;;
28756;SDS011;44294;48.282;14.282;2024-03-08T01:13:51;81.03;;;37.93;;
28756;SDS011;44294;48.282;14.282;2024-03-08T01:16:39;79.03;;;38.70;;
28756;SDS011;44294;48.282;14.282;2024-03-08T01:19:27;75.00;;;36.40;;
28756;SDS011;44294;48.282;14.282;2024-03-08T01:22:14;85.23;;;38.93;;
28756;SDS011;44294;48.282;14.282;2024-03-08T01:25:02;81.03;;;38.77;;
28756;SDS011;44294;48.282;14.282;2024-03-08T01:27:51;76.83;;;37.73;;
28756;SDS011;44294;48.282;14.282;2024-03-08T01:30:40;87.53;;;40.40;;
28756;SDS011;44294;48.282;14.282;2024-03-08T01:33:29;79.50;;;37.47;;
28756;SDS011;44294;48.282;14.282;2024-03-08T01:36:17;74.70;;;36.33;;
28756;SDS011;44294;48.282;14.282;2024-03-08T01:39:05;75.73;;;37.23;;
28756;SDS011;44294;48.282;14.282;2024-03-08T01:41:54;76.90;;;36.87;;
28756;SDS011;44294;48.282;14.282;2024-03-08T01:44:43;80.53;;;38.27;;
28756;SDS011;44294;48.282;14.282;2024-03-08T01:47:31;82.80;;;38.03;;
28756;SDS011;44294;48.282;14.282;2024-03-08T01:50:19;72.90;;;35.17;;
28756;SDS011;44294;48.282;14.282;2024-03-08T01:53:07;85.27;;;39.43;;
28756;SDS011;44294;48.282;14.282;2024-03-08T01:55:56;79.97;;;37.83;;
28756;SDS011;44294;48.282;14.282;2024-03-08T01:58:44;74.13;;;35.53;;
28756;SDS011;44294;48.282;14.282;2024-03-08T02:01:33;86.50;;;38.80;;
28756;SDS011;44294;48.282;14.282;2024-03-08T02:04:21;80.97;;;39.50;;
28756;SDS011;44294;48.282;14.282;2024-03-08T02:07:08;77.07;;;36.70;;
28756;SDS011;44294;48.282;14.282;2024-03-08T02:09:55;85.83;;;38.73;;
28756;SDS011;44294;48.282;14.282;2024-03-08T02:12:43;83.77;;;38.10;;
28756;SDS011;44294;48.282;14.282;2024-03-08T02:15:50;77.33;;;36.40;;
28756;SDS011;44294;48.282;14.282;2024-03-08T02:18:23;79.67;;;36.83;;
28756;SDS011;44294;48.282;14.282;2024-03-08T02:21:10;81.07;;;37.60;;
28756;SDS011;44294;48.282;14.282;2024-03-08T02:23:58;80.83;;;38.80;;
28756;SDS011;44294;48.282;14.282;2024-03-08T02:26:46;81.87;;;37.90;;
28756;SDS011;44294;48.282;14.282;2024-03-08T02:29:33;80.23;;;38.10;;
28756;SDS011;44294;48.282;14.282;2024-03-08T02:32:21;77.17;;;36.67;;
28756;SDS011;44294;48.282;14.282;2024-03-08T02:35:08;81.63;;;36.97;;
28756;SDS011;44294;48.282;14.282;2024-03-08T02:37:56;83.87;;;38.60;;
28756;SDS011;44294;48.282;14.282;2024-03-08T02:40:49;81.67;;;37.70;;
28756;SDS011;44294;48.282;14.282;2024-03-08T02:43:33;80.77;;;38.07;;
28756;SDS011;44294;48.282;14.282;2024-03-08T02:46:21;79.77;;;37.80;;
28756;SDS011;44294;48.282;14.282;2024-03-08T02:49:08;85.00;;;38.00;;
28756;SDS011;44294;48.282;14.282;2024-03-08T02:51:55;82.13;;;37.70;;
28756;SDS011;44294;48.282;14.282;2024-03-08T02:54:43;73.63;;;35.33;;
28756;SDS011;44294;48.282;14.282;2024-03-08T02:57:32;70.63;;;33.67;;
28756;SDS011;44294;48.282;14.282;2024-03-08T03:00:20;73.00;;;34.60;;
28756;SDS011;44294;48.282;14.282;2024-03-08T03:03:09;73.80;;;34.73;;
28756;SDS011;44294;48.282;14.282;2024-03-08T03:05:56;70.80;;;33.17;;
28756;SDS011;44294;48.282;14.282;2024-03-08T03:08:43;70.30;;;33.40;;
28756;SDS011;44294;48.282;14.282;2024-03-08T03:11:32;70.63;;;33.57;;
28756;SDS011;44294;48.282;14.282;2024-03-08T03:14:19;66.00;;;32.53;;
28756;SDS011;44294;48.282;14.282;2024-03-08T03:17:06;66.73;;;32.10;;
28756;SDS011;44294;48.282;14.282;2024-03-08T03:19:54;66.17;;;32.53;;
28756;SDS011;44294;48.282;14.282;2024-03-08T03:22:41;69.90;;;32.03;;
28756;SDS011;44294;48.282;14.282;2024-03-08T03:25:30;68.93;;;33.33;;
28756;SDS011;44294;48.282;14.282;2024-03-08T03:28:21;67.97;;;32.13;;
28756;SDS011;44294;48.282;14.282;2024-03-08T03:31:10;69.77;;;34.40;;
28756;SDS011;44294;48.282;14.282;2024-03-08T03:33:59;73.43;;;33.40;;
28756;SDS011;44294;48.282;14.282;2024-03-08T03:36:48;71.17;;;33.17;;
28756;SDS011;44294;48.282;14.282;2024-03-08T03:39:35;73.50;;;34.57;;
28756;SDS011;44294;48.282;14.282;2024-03-08T03:42:24;70.90;;;33.87;;
28756;SDS011;44294;48.282;14.282;2024-03-08T03:45:12;72.13;;;34.10;;
28756;SDS011;44294;48.282;14.282;2024-03-08T03:48:04;77.03;;;34.43;;
28756;SDS011;44294;48.282;14.282;2024-03-08T03:50:54;76.43;;;35.77;;
28756;SDS011;44294;48.282;14.282;2024-03-08T03:53:42;68.30;;;32.50;;
28756;SDS011;44294;48.282;14.282;2024-03-08T03:56:29;69.03;;;33.07;;
28756;SDS011;44294;48.282;14.282;2024-03-08T03:59:19;70.10;;;33.37;;
28756;SDS011;44294;48.282;14.282;2024-03-08T04:02:06;69.20;;;34.33;;
28756;SDS011;44294;48.282;14.282;2024-03-08T04:04:54;70.90;;;34.27;;
28756;SDS011;44294;48.282;14.282;2024-03-08T04:07:41;71.43;;;33.60;;
28756;SDS011;44294;48.282;14.282;2024-03-08T04:10:28;64.87;;;31.90;;
28756;SDS011;44294;48.282;14.282;2024-03-08T04:13:16;64.27;;;31.10;;
28756;SDS011;44294;48.282;14.282;2024-03-08T04:16:03;63.33;;;29.93;;
28756;SDS011;44294;48.282;14.282;2024-03-08T04:18:53;62.13;;;30.77;;
28756;SDS011;44294;48.282;14.282;2024-03-08T04:21:40;62.33;;;30.83;;
28756;SDS011;44294;48.282;14.282;2024-03-08T04:24:28;62.83;;;29.70;;
28756;SDS011;44294;48.282;14.282;2024-03-08T04:27:17;60.90;;;29.37;;
28756;SDS011;44294;48.282;14.282;2024-03-08T04:30:04;66.67;;;30.93;;
28756;SDS011;44294;48.282;14.282;2024-03-08T04:32:53;70.50;;;31.87;;
28756;SDS011;44294;48.282;14.282;2024-03-08T04:35:41;67.10;;;32.63;;
28756;SDS011;44294;48.282;14.282;2024-03-08T04:38:28;69.93;;;32.70;;
28756;SDS011;44294;48.282;14.282;2024-03-08T04:41:17;66.87;;;32.17;;
28756;SDS011;44294;48.282;14.282;2024-03-08T04:44:04;66.17;;;32.97;;
28756;SDS011;44294;48.282;14.282;2024-03-08T04:46:52;71.17;;;33.27;;
28756;SDS011;44294;48.282;14.282;2024-03-08T04:49:39;68.23;;;33.90;;
28756;SDS011;44294;48.282;14.282;2024-03-08T04:52:27;70.30;;;34.37;;
28756;SDS011;44294;48.282;14.282;2024-03-08T04:55:15;68.77;;;34.23;;
28756;SDS011;44294;48.282;14.282;2024-03-08T04:58:02;71.27;;;33.77;;
28756;SDS011;44294;48.282;14.282;2024-03-08T05:00:50;64.77;;;31.33;;
28756;SDS011;44294;48.282;14.282;2024-03-08T05:03:38;72.10;;;33.07;;
28756;SDS011;44294;48.282;14.282;2024-03-08T05:06:25;74.30;;;34.47;;
28756;SDS011;44294;48.282;14.282;2024-03-08T05:09:13;69.30;;;33.90;;
28756;SDS011;44294;48.282;14.282;2024-03-08T05:12:00;70.73;;;33.10;;
28756;SDS011;44294;48.282;14.282;2024-03-08T05:14:48;68.70;;;32.47;;
28756;SDS011;44294;48.282;14.282;2024-03-08T05:17:36;68.50;;;32.33;;
28756;SDS011;44294;48.282;14.282;2024-03-08T05:20:23;68.10;;;32.40;;
28756;SDS011;44294;48.282;14.282;2024-03-08T05:23:10;74.43;;;33.13;;
28756;SDS011;44294;48.282;14.282;2024-03-08T05:25:58;67.07;;;31.93;;
28756;SDS011;44294;48.282;14.282;2024-03-08T05:28:45;65.43;;;32.50;;
28756;SDS011;44294;48.282;14.282;2024-03-08T05:31:38;67.43;;;31.53;;
28756;SDS011;44294;48.282;14.282;2024-03-08T05:34:25;72.87;;;34.70;;
28756;SDS011;44294;48.282;14.282;2024-03-08T05:37:14;74.47;;;34.73;;
28756;SDS011;44294;48.282;14.282;2024-03-08T05:40:02;73.17;;;34.97;;
28756;SDS011;44294;48.282;14.282;2024-03-08T05:42:51;69.47;;;33.10;;
28756;SDS011;44294;48.282;14.282;2024-03-08T05:45:38;74.23;;;33.97;;
28756;SDS011;44294;48.282;14.282;2024-03-08T05:48:26;69.87;;;33.10;;
28756;SDS011;44294;48.282;14.282;2024-03-08T05:51:14;74.03;;;34.00;;
28756;SDS011;44294;48.282;14.282;2024-03-08T05:54:05;66.73;;;32.90;;
28756;SDS011;44294;48.282;14.282;2024-03-08T05:56:52;70.27;;;32.20;;
28756;SDS011;44294;48.282;14.282;2024-03-08T05:59:40;69.80;;;32.47;;
28756;SDS011;44294;48.282;14.282;2024-03-08T06:02:28;69.63;;;33.83;;
28756;SDS011;44294;48.282;14.282;2024-03-08T06:05:15;73.77;;;34.53;;
28756;SDS011;44294;48.282;14.282;2024-03-08T06:08:03;84.87;;;35.20;;
28756;SDS011;44294;48.282;14.282;2024-03-08T06:10:51;79.60;;;34.80;;
28756;SDS011;44294;48.282;14.282;2024-03-08T06:13:39;68.07;;;31.33;;
28756;SDS011;44294;48.282;14.282;2024-03-08T06:16:26;74.63;;;34.30;;
28756;SDS011;44294;48.282;14.282;2024-03-08T06:19:16;72.67;;;33.57;;
28756;SDS011;44294;48.282;14.282;2024-03-08T06:22:04;65.53;;;32.20;;
28756;SDS011;44294;48.282;14.282;2024-03-08T06:24:52;72.43;;;33.00;;
28756;SDS011;44294;48.282;14.282;2024-03-08T06:27:40;65.10;;;31.33;;
28756;SDS011;44294;48.282;14.282;2024-03-08T06:30:28;64.63;;;31.30;;
28756;SDS011;44294;48.282;14.282;2024-03-08T06:33:17;70.27;;;33.47;;
28756;SDS011;44294;48.282;14.282;2024-03-08T06:36:05;63.07;;;31.20;;
28756;SDS011;44294;48.282;14.282;2024-03-08T06:38:52;61.53;;;31.17;;
28756;SDS011;44294;48.282;14.282;2024-03-08T06:41:40;66.77;;;31.33;;
28756;SDS011;44294;48.282;14.282;2024-03-08T06:44:27;67.80;;;32.77;;
28756;SDS011;44294;48.282;14.282;2024-03-08T06:47:15;64.93;;;30.83;;
28756;SDS011;44294;48.282;14.282;2024-03-08T06:50:03;67.67;;;32.60;;
28756;SDS011;44294;48.282;14.282;2024-03-08T06:52:50;65.07;;;31.93;;
28756;SDS011;44294;48.282;14.282;2024-03-08T06:55:40;63.10;;;30.67;;
28756;SDS011;44294;48.282;14.282;2024-03-08T06:58:27;64.47;;;30.43;;
28756;SDS011;44294;48.282;14.282;2024-03-08T07:01:14;59.67;;;28.77;;
28756;SDS011;44294;48.282;14.282;2024-03-08T07:04:02;64.97;;;30.57;;
28756;SDS011;44294;48.282;14.282;2024-03-08T07:06:51;66.20;;;30.03;;
28756;SDS011;44294;48.282;14.282;2024-03-08T07:09:38;55.50;;;28.70;;
28756;SDS011;44294;48.282;14.282;2024-03-08T07:12:26;63.23;;;29.80;;
28756;SDS011;44294;48.282;14.282;2024-03-08T07:15:13;57.93;;;28.73;;
28756;SDS011;44294;48.282;14.282;2024-03-08T07:18:01;55.43;;;27.43;;
28756;SDS011;44294;48.282;14.282;2024-03-08T07:20:48;87.53;;;45.20;;
28756;SDS011;44294;48.282;14.282;2024-03-08T07:23:36;95.23;;;48.27;;
28756;SDS011;44294;48.282;14.282;2024-03-08T07:26:41;60.93;;;30.33;;
28756;SDS011;44294;48.282;14.282;2024-03-08T07:29:28;63.50;;;30.97;;
28756;SDS011;44294;48.282;14.282;2024-03-08T07:32:16;71.17;;;31.70;;
28756;SDS011;44294;48.282;14.282;2024-03-08T07:35:10;64.00;;;31.20;;
28756;SDS011;44294;48.282;14.282;2024-03-08T07:37:57;157.43;;;76.60;;
28756;SDS011;44294;48.282;14.282;2024-03-08T07:40:46;57.07;;;29.77;;
28756;SDS011;44294;48.282;14.282;2024-03-08T07:43:34;55.13;;;28.60;;
28756;SDS011;44294;48.282;14.282;2024-03-08T07:46:21;69.20;;;30.57;;
28756;SDS011;44294;48.282;14.282;2024-03-08T07:49:09;56.37;;;28.50;;
28756;SDS011;44294;48.282;14.282;2024-03-08T07:51:58;57.73;;;29.63;;
28756;SDS011;44294;48.282;14.282;2024-03-08T07:54:45;59.10;;;29.47;;
28756;SDS011;44294;48.282;14.282;2024-03-08T07:57:32;71.00;;;34.97;;
28756;SDS011;44294;48.282;14.282;2024-03-08T08:00:21;57.23;;;29.30;;
28756;SDS011;44294;48.282;14.282;2024-03-08T08:03:08;51.60;;;25.60;;
28756;SDS011;44294;48.282;14.282;2024-03-08T08:05:55;58.57;;;27.97;;
28756;SDS011;44294;48.282;14.282;2024-03-08T08:08:43;53.20;;;26.33;;
28756;SDS011;44294;48.282;14.282;2024-03-08T08:11:30;53.20;;;27.90;;
28756;SDS011;44294;48.282;14.282;2024-03-08T08:14:19;53.63;;;27.93;;
28756;SDS011;44294;48.282;14.282;2024-03-08T08:17:07;49.17;;;25.47;;
28756;SDS011;44294;48.282;14.282;2024-03-08T08:19:55;48.10;;;25.53;;
28756;SDS011;44294;48.282;14.282;2024-03-08T08:22:42;63.37;;;33.23;;
28756;SDS011;44294;48.282;14.282;2024-03-08T08:25:30;45.97;;;24.97;;
28756;SDS011;44294;48.282;14.282;2024-03-08T08:28:19;47.30;;;25.90;;
28756;SDS011;44294;48.282;14.282;2024-03-08T08:31:06;50.00;;;26.33;;
28756;SDS011;44294;48.282;14.282;2024-03-08T08:33:54;47.07;;;24.97;;
28756;SDS011;44294;48.282;14.282;2024-03-08T08:36:43;57.30;;;29.63;;
28756;SDS011;44294;48.282;14.282;2024-03-08T08:39:31;48.47;;;26.57;;
28756;SDS011;44294;48.282;14.282;2024-03-08T08:42:19;41.77;;;22.90;;
28756;SDS011;44294;48.282;14.282;2024-03-08T08:45:06;41.13;;;22.20;;
28756;SDS011;44294;48.282;14.282;2024-03-08T08:47:57;40.10;;;22.20;;
28756;SDS011;44294;48.282;14.282;2024-03-08T08:50:46;35.60;;;19.10;;
28756;SDS011;44294;48.282;14.282;2024-03-08T08:53:33;37.30;;;20.20;;
28756;SDS011;44294;48.282;14.282;2024-03-08T08:56:21;36.10;;;18.60;;
28756;SDS011;44294;48.282;14.282;2024-03-08T08:59:08;31.97;;;18.40;;
28756;SDS011;44294;48.282;14.282;2024-03-08T09:01:56;34.37;;;18.77;;
28756;SDS011;44294;48.282;14.282;2024-03-08T09:04:43;28.63;;;17.60;;
28756;SDS011;44294;48.282;14.282;2024-03-08T09:07:31;31.63;;;17.10;;
28756;SDS011;44294;48.282;14.282;2024-03-08T09:10:20;43.70;;;25.83;;
28756;SDS011;44294;48.282;14.282;2024-03-08T09:13:07;30.70;;;16.93;;
28756;SDS011;44294;48.282;14.282;2024-03-08T09:15:56;26.33;;;14.67;;
28756;SDS011;44294;48.282;14.282;2024-03-08T09:18:43;24.70;;;13.77;;
28756;SDS011;44294;48.282;14.282;2024-03-08T09:21:31;25.10;;;13.97;;
28756;SDS011;44294;48.282;14.282;2024-03-08T09:24:19;24.20;;;14.73;;
28756;SDS011;44294;48.282;14.282;2024-03-08T09:27:06;29.57;;;15.10;;
28756;SDS011;44294;48.282;14.282;2024-03-08T09:29:56;21.70;;;13.80;;
28756;SDS011;44294;48.282;14.282;2024-03-08T09:32:43;22.30;;;14.50;;
28756;SDS011;44294;48.282;14.282;2024-03-08T09:35:30;29.03;;;16.13;;
28756;SDS011;44294;48.282;14.282;2024-03-08T09:38:18;24.47;;;15.53;;
28756;SDS011;44294;48.282;14.282;2024-03-08T09:41:07;25.33;;;15.87;;
28756;SDS011;44294;48.282;14.282;2024-03-08T09:43:56;26.20;;;16.20;;
28756;SDS011;44294;48.282;14.282;2024-03-08T09:46:45;32.17;;;15.20;;
28756;SDS011;44294;48.282;14.282;2024-03-08T09:49:34;26.13;;;15.47;;
28756;SDS011;44294;48.282;14.282;2024-03-08T09:52:21;24.67;;;15.00;;
28756;SDS011;44294;48.282;14.282;2024-03-08T09:55:09;24.67;;;15.00;;
28756;SDS011;44294;48.282;14.282;2024-03-08T09:57:57;28.90;;;14.73;;
28756;SDS011;44294;48.282;14.282;2024-03-08T10:01:03;22.30;;;14.67;;
28756;SDS011;44294;48.282;14.282;2024-03-08T10:03:54;25.63;;;16.20;;
28756;SDS011;44294;48.282;14.282;2024-03-08T10:06:41;25.17;;;14.93;;
28756;SDS011;44294;48.282;14.282;2024-03-08T10:09:30;26.67;;;14.37;;
28756;SDS011;44294;48.282;14.282;2024-03-08T10:12:17;25.57;;;14.37;;
28756;SDS011;44294;48.282;14.282;2024-03-08T10:15:06;21.17;;;13.07;;
28756;SDS011;44294;48.282;14.282;2024-03-08T10:17:55;25.10;;;12.90;;
28756;SDS011;44294;48.282;14.282;2024-03-08T10:20:42;20.53;;;13.10;;
28756;SDS011;44294;48.282;14.282;2024-03-08T10:23:30;20.30;;;12.27;;
28756;SDS011;44294;48.282;14.282;2024-03-08T10:26:19;22.43;;;11.80;;
28756;SDS011;44294;48.282;14.282;2024-03-08T10:29:08;21.60;;;13.20;;
28756;SDS011;44294;48.282;14.282;2024-03-08T10:31:55;20.23;;;12.63;;
28756;SDS011;44294;48.282;14.282;2024-03-08T10:34:43;26.07;;;13.50;;
28756;SDS011;44294;48.282;14.282;2024-03-08T10:37:31;25.00;;;12.63;;
28756;SDS011;44294;48.282;14.282;2024-03-08T10:40:19;20.47;;;13.20;;
28756;SDS011;44294;48.282;14.282;2024-03-08T10:43:07;20.50;;;12.27;;
28756;SDS011;44294;48.282;14.282;2024-03-08T10:46:08;21.27;;;12.30;;
28756;SDS011;44294;48.282;14.282;2024-03-08T10:48:45;18.60;;;12.13;;
28756;SDS011;44294;48.282;14.282;2024-03-08T10:51:34;21.17;;;12.40;;
28756;SDS011;44294;48.282;14.282;2024-03-08T10:54:22;25.53;;;13.90;;
28756;SDS011;44294;48.282;14.282;2024-03-08T10:57:12;26.70;;;16.77;;
28756;SDS011;44294;48.282;14.282;2024-03-08T10:59:59;22.83;;;13.33;;
28756;SDS011;44294;48.282;14.282;2024-03-08T11:02:47;29.43;;;13.77;;
28756;SDS011;44294;48.282;14.282;2024-03-08T11:05:38;22.97;;;13.27;;
28756;SDS011;44294;48.282;14.282;2024-03-08T11:08:25;18.60;;;10.97;;
28756;SDS011;44294;48.282;14.282;2024-03-08T11:11:29;18.03;;;10.97;;
28756;SDS011;44294;48.282;14.282;2024-03-08T11:17:26;22.27;;;11.93;;
28756;SDS011;44294;48.282;14.282;2024-03-08T11:20:15;22.67;;;12.50;;
28756;SDS011;44294;48.282;14.282;2024-03-08T11:23:03;20.67;;;12.73;;
28756;SDS011;44294;48.282;14.282;2024-03-08T11:25:51;18.67;;;11.83;;
28756;SDS011;44294;48.282;14.282;2024-03-08T11:28:39;18.77;;;11.50;;
28756;SDS011;44294;48.282;14.282;2024-03-08T11:31:26;22.13;;;12.40;;
28756;SDS011;44294;48.282;14.282;2024-03-08T11:34:15;17.60;;;11.33;;
28756;SDS011;44294;48.282;14.282;2024-03-08T11:37:10;22.87;;;11.97;;
28756;SDS011;44294;48.282;14.282;2024-03-08T11:39:55;19.73;;;11.63;;
28756;SDS011;44294;48.282;14.282;2024-03-08T11:42:45;21.53;;;13.10;;
28756;SDS011;44294;48.282;14.282;2024-03-08T11:45:35;18.10;;;11.60;;
28756;SDS011;44294;48.282;14.282;2024-03-08T11:48:23;17.77;;;11.00;;
28756;SDS011;44294;48.282;14.282;2024-03-08T11:51:11;18.50;;;11.33;;
28756;SDS011;44294;48.282;14.282;2024-03-08T11:53:59;19.50;;;11.60;;
28756;SDS011;44294;48.282;14.282;2024-03-08T11:56:47;15.77;;;10.50;;
28756;SDS011;44294;48.282;14.282;2024-03-08T11:59:34;18.17;;;11.00;;
28756;SDS011;44294;48.282;14.282;2024-03-08T12:02:22;20.63;;;12.00;;
28756;SDS011;44294;48.282;14.282;2024-03-08T12:05:09;18.33;;;11.00;;
28756;SDS011;44294;48.282;14.282;2024-03-08T12:07:57;17.33;;;11.47;;
28756;SDS011;44294;48.282;14.282;2024-03-08T12:10:48;17.27;;;10.20;;
28756;SDS011;44294;48.282;14.282;2024-03-08T12:13:35;15.60;;;9.97;;
28756;SDS011;44294;48.282;14.282;2024-03-08T12:16:23;15.87;;;10.40;;
28756;SDS011;44294;48.282;14.282;2024-03-08T12:19:10;20.73;;;11.20;;
28756;SDS011;44294;48.282;14.282;2024-03-08T12:22:06;15.33;;;10.27;;
28756;SDS011;44294;48.282;14.282;2024-03-08T12:25:02;20.53;;;12.10;;
28756;SDS011;44294;48.282;14.282;2024-03-08T12:27:40;18.83;;;12.20;;
28756;SDS011;44294;48.282;14.282;2024-03-08T12:30:29;18.20;;;11.90;;
28756;SDS011;44294;48.282;14.282;2024-03-08T12:33:18;19.87;;;12.70;;
28756;SDS011;44294;48.282;14.282;2024-03-08T12:36:06;19.20;;;11.50;;
28756;SDS011;44294;48.282;14.282;2024-03-08T12:38:55;20.50;;;11.40;;
28756;SDS011;44294;48.282;14.282;2024-03-08T12:41:42;16.47;;;11.00;;
28756;SDS011;44294;48.282;14.282;2024-03-08T12:44:30;21.10;;;12.17;;
28756;SDS011;44294;48.282;14.282;2024-03-08T12:47:17;18.87;;;10.87;;
28756;SDS011;44294;48.282;14.282;2024-03-08T12:50:05;16.30;;;10.43;;
28756;SDS011;44294;48.282;14.282;2024-03-08T12:52:54;15.20;;;9.70;;
28756;SDS011;44294;48.282;14.282;2024-03-08T12:55:42;14.90;;;10.20;;
28756;SDS011;44294;48.282;14.282;2024-03-08T12:58:29;22.20;;;11.10;;
28756;SDS011;44294;48.282;14.282;2024-03-08T13:01:17;18.60;;;10.50;;
28756;SDS011;44294;48.282;14.282;2024-03-08T13:04:05;18.33;;;11.10;;
28756;SDS011;44294;48.282;14.282;2024-03-08T13:06:54;18.43;;;10.63;;
28756;SDS011;44294;48.282;14.282;2024-03-08T13:09:42;14.87;;;9.50;;
28756;SDS011;44294;48.282;14.282;2024-03-08T13:12:29;14.57;;;9.77;;
28756;SDS011;44294;48.282;14.282;2024-03-08T13:15:17;16.90;;;9.93;;
28756;SDS011;44294;48.282;14.282;2024-03-08T13:18:07;17.13;;;10.03;;
28756;SDS011;44294;48.282;14.282;2024-03-08T13:20:55;14.30;;;9.23;;
28756;SDS011;44294;48.282;14.282;2024-03-08T13:23:43;14.40;;;9.30;;
28756;SDS011;44294;48.282;14.282;2024-03-08T13:26:35;15.33;;;9.83;;
28756;SDS011;44294;48.282;14.282;2024-03-08T13:29:23;18.00;;;10.20;;
28756;SDS011;44294;48.282;14.282;2024-03-08T13:32:10;16.67;;;9.70;;
28756;SDS011;44294;48.282;14.282;2024-03-08T13:34:58;19.83;;;10.27;;
28756;SDS011;44294;48.282;14.282;2024-03-08T13:37:46;17.10;;;10.10;;
28756;SDS011;44294;48.282;14.282;2024-03-08T13:40:33;18.93;;;10.33;;
28756;SDS011;44294;48.282;14.282;2024-03-08T13:43:20;15.53;;;9.83;;
28756;SDS011;44294;48.282;14.282;2024-03-08T13:46:08;17.93;;;9.50;;
28756;SDS011;44294;48.282;14.282;2024-03-08T13:48:57;16.37;;;9.57;;
28756;SDS011;44294;48.282;14.282;2024-03-08T13:51:46;15.83;;;9.50;;
28756;SDS011;44294;48.282;14.282;2024-03-08T13:54:35;20.13;;;10.30;;
28756;SDS011;44294;48.282;14.282;2024-03-08T13:57:22;14.20;;;9.40;;
28756;SDS011;44294;48.282;14.282;2024-03-08T14:00:10;17.50;;;9.53;;
28756;SDS011;44294;48.282;14.282;2024-03-08T14:02:57;16.37;;;9.63;;
28756;SDS011;44294;48.282;14.282;2024-03-08T14:05:45;16.63;;;10.03;;
28756;SDS011;44294;48.282;14.282;2024-03-08T14:08:33;15.07;;;8.97;;
28756;SDS011;44294;48.282;14.282;2024-03-08T14:11:20;16.47;;;9.73;;
28756;SDS011;44294;48.282;14.282;2024-03-08T14:14:10;14.03;;;8.90;;
28756;SDS011;44294;48.282;14.282;2024-03-08T14:16:58;13.10;;;8.47;;
28756;SDS011;44294;48.282;14.282;2024-03-08T14:19:46;16.23;;;9.67;;
28756;SDS011;44294;48.282;14.282;2024-03-08T14:22:33;13.17;;;8.57;;
28756;SDS011;44294;48.282;14.282;2024-03-08T14:25:21;14.93;;;8.20;;
28756;SDS011;44294;48.282;14.282;2024-03-08T14:28:09;15.40;;;9.07;;
28756;SDS011;44294;48.282;14.282;2024-03-08T14:30:58;18.23;;;8.53;;
28756;SDS011;44294;48.282;14.282;2024-03-08T14:33:47;18.73;;;9.00;;
28756;SDS011;44294;48.282;14.282;2024-03-08T14:36:35;12.83;;;8.20;;
28756;SDS011;44294;48.282;14.282;2024-03-08T14:39:24;14.77;;;8.63;;
28756;SDS011;44294;48.282;14.282;2024-03-08T14:42:13;16.27;;;8.27;;
28756;SDS011;44294;48.282;14.282;2024-03-08T14:45:01;13.90;;;8.73;;
28756;SDS011;44294;48.282;14.282;2024-03-08T14:47:49;14.10;;;8.47;;
28756;SDS011;44294;48.282;14.282;2024-03-08T14:50:36;12.33;;;8.27;;
28756;SDS011;44294;48.282;14.282;2024-03-08T14:53:24;16.00;;;8.20;;
28756;SDS011;44294;48.282;14.282;2024-03-08T14:56:11;12.80;;;7.17;;
28756;SDS011;44294;48.282;14.282;2024-03-08T14:59:00;15.43;;;7.70;;
28756;SDS011;44294;48.282;14.282;2024-03-08T15:01:48;12.30;;;7.30;;
28756;SDS011;44294;48.282;14.282;2024-03-08T15:04:35;14.77;;;8.77;;
28756;SDS011;44294;48.282;14.282;2024-03-08T15:07:23;11.20;;;8.10;;
28756;SDS011;44294;48.282;14.282;2024-03-08T15:10:12;22.57;;;8.77;;
28756;SDS011;44294;48.282;14.282;2024-03-08T15:13:01;16.27;;;8.63;;
28756;SDS011;44294;48.282;14.282;2024-03-08T15:15:50;19.80;;;9.50;;
28756;SDS011;44294;48.282;14.282;2024-03-08T15:18:44;15.43;;;8.87;;
28756;SDS011;44294;48.282;14.282;2024-03-08T15:21:34;17.20;;;9.00;;
28756;SDS011;44294;48.282;14.282;2024-03-08T15:24:22;17.03;;;8.60;;
28756;SDS011;44294;48.282;14.282;2024-03-08T15:27:10;13.43;;;8.00;;
28756;SDS011;44294;48.282;14.282;2024-03-08T15:29:57;16.93;;;9.43;;
28756;SDS011;44294;48.282;14.282;2024-03-08T15:32:48;15.03;;;8.30;;
28756;SDS011;44294;48.282;14.282;2024-03-08T15:35:36;15.43;;;8.90;;
28756;SDS011;44294;48.282;14.282;2024-03-08T15:38:24;17.20;;;9.53;;
28756;SDS011;44294;48.282;14.282;2024-03-08T15:41:13;18.03;;;9.83;;
28756;SDS011;44294;48.282;14.282;2024-03-08T15:44:01;16.03;;;9.50;;
28756;SDS011;44294;48.282;14.282;2024-03-08T15:46:48;15.03;;;8.97;;
28756;SDS011;44294;48.282;14.282;2024-03-08T15:49:36;14.33;;;9.00;;
28756;SDS011;44294;48.282;14.282;2024-03-08T15:52:23;15.87;;;9.37;;
28756;SDS011;44294;48.282;14.282;2024-03-08T15:55:17;15.30;;;9.23;;
28756;SDS011;44294;48.282;14.282;2024-03-08T15:58:09;17.30;;;10.47;;
28756;SDS011;44294;48.282;14.282;2024-03-08T16:00:57;19.00;;;10.83;;
28756;SDS011;44294;48.282;14.282;2024-03-08T16:03:46;16.40;;;10.23;;
28756;SDS011;44294;48.282;14.282;2024-03-08T16:06:37;16.97;;;10.90;;
28756;SDS011;44294;48.282;14.282;2024-03-08T16:09:25;15.87;;;10.60;;
28756;SDS011;44294;48.282;14.282;2024-03-08T16:12:14;15.23;;;9.80;;
28756;SDS011;44294;48.282;14.282;2024-03-08T16:15:02;15.97;;;10.40;;